createdAt,value
2019-04-03T00:12:31.951Z,6.03
2019-04-03T00:32:41.425Z,4.97
2019-04-03T00:52:53.190Z,5.40
2019-04-03T01:12:52.715Z,5.41
2019-04-03T01:33:02.159Z,4.75
2019-04-03T01:53:11.582Z,4.41
2019-04-03T02:13:21.891Z,6.40
2019-04-03T02:33:30.252Z,6.72
2019-04-03T02:53:39.479Z,7.10
2019-04-03T03:13:48.985Z,10.04
2019-04-03T03:34:02.049Z,6.65
2019-04-03T03:54:07.672Z,7.26
2019-04-03T04:14:21.118Z,8.72
2019-04-03T04:34:28.343Z,11.27
2019-04-03T04:54:30.631Z,11.11
2019-04-03T05:14:28.983Z,12.53
2019-04-03T05:34:38.336Z,11.41
2019-04-03T05:54:50.056Z,9.37
2019-04-03T06:14:50.112Z,8.37
2019-04-03T06:34:58.662Z,7.13
2019-04-03T06:55:08.154Z,6.97
2019-04-03T07:15:17.642Z,7.79
2019-04-03T07:35:27.184Z,9.81
2019-04-03T07:55:38.919Z,7.15
2019-04-03T08:15:38.756Z,7.48
2019-04-03T08:35:48.003Z,7.21
2019-04-03T08:55:57.505Z,8.39
2019-04-03T09:16:11.664Z,9.89
2019-04-03T09:36:11.306Z,8.28
2019-04-03T09:56:20.711Z,8.48
2019-04-03T10:16:30.156Z,10.78
2019-04-03T10:36:42.065Z,9.85
2019-04-03T10:56:39.806Z,9.79
2019-04-03T11:16:49.095Z,10.20
2019-04-03T11:36:59.705Z,8.70
2019-04-03T11:57:06.534Z,7.69
2019-04-03T12:17:15.676Z,7.39
2019-04-03T12:37:25.724Z,7.38
2019-04-03T12:57:38.698Z,7.26
2019-04-03T13:17:35.953Z,7.27
2019-04-03T13:37:47.580Z,9.55
2019-04-03T13:57:49.211Z,8.08
2019-04-03T14:17:58.427Z,7.99
2019-04-03T14:38:07.740Z,6.91
2019-04-03T14:58:08.833Z,7.49
2019-04-03T15:18:10.170Z,8.28
2019-04-03T15:38:18.698Z,7.01
2019-04-03T15:58:27.178Z,6.81
2019-04-03T16:18:37.879Z,5.93
2019-04-03T16:38:44.697Z,6.24
2019-04-03T16:58:53.443Z,8.65
2019-04-03T17:19:02.930Z,9.30
2019-04-03T17:39:12.521Z,7.24
2019-04-03T17:59:21.925Z,7.72
2019-04-03T18:19:37.480Z,7.62
2019-04-03T18:39:41.063Z,6.31
2019-04-03T18:59:49.511Z,5.42
2019-04-03T19:20:09.711Z,5.74
2019-04-03T19:40:09.683Z,5.46
2019-04-03T20:00:17.333Z,4.94
2019-04-03T20:20:29.326Z,4.71
2019-04-03T20:40:35.917Z,4.53
2019-04-03T21:00:49.401Z,4.50
2019-04-03T21:20:56.771Z,3.78
2019-04-03T21:40:58.559Z,4.37
2019-04-03T22:00:58.641Z,3.80
2019-04-03T22:21:07.180Z,4.24
2019-04-03T22:41:16.579Z,4.49
2019-04-03T23:01:29.802Z,6.03
2019-04-03T23:21:27.384Z,4.59
2019-04-03T23:41:37.033Z,3.75
